Time;durP1;ratioP1;P1;durP2;ratioP2;P2;SDS_P1;SDS_P2;PMS_P1;PMS_P2;Temp;Humidity;BMP_temperature;BMP_pressure;BME280_temperature;BME280_humidity;BME280_pressure;Samples;Min_cycle;Max_cycle;Signal;HPM_P1;HPM_P2
2022/09/23 00:01:09;;;;;;;0.52;0.52;;;8.40;99.90;;;;;;5072027;28;20072;-89
2022/09/23 00:03:37;;;;;;;0.50;0.50;;;8.40;99.90;;;;;;5072641;28;20056;-90
2022/09/23 00:06:12;;;;;;;0.50;0.50;;;9.20;99.90;;;;;;5070711;28;20568;-88
2022/09/23 00:08:38;;;;;;;0.40;0.40;;;8.30;99.90;;;;;;5051312;28;20048;-88
2022/09/23 00:11:05;;;;;;;0.43;0.43;;;8.30;99.90;;;;;;5065056;28;20045;-89
2022/09/23 00:13:32;;;;;;;0.52;0.52;;;8.30;99.90;;;;;;5051114;28;20028;-89
2022/09/23 00:16:03;;;;;;;0.50;0.50;;;8.30;99.90;;;;;;5079754;28;20033;-89
2022/09/23 00:18:30;;;;;;;0.60;0.60;;;8.20;99.90;;;;;;5082579;28;20043;-87
2022/09/23 00:20:56;;;;;;;0.40;0.40;;;8.30;99.90;;;;;;5058405;28;20088;-86
2022/09/23 00:23:21;;;;;;;0.50;0.50;;;8.40;99.90;;;;;;5036983;28;20045;-90
2022/09/23 00:26:03;;;;;;;0.50;0.50;;;8.20;99.90;;;;;;5047174;28;20040;-89
2022/09/23 00:28:29;;;;;;;0.43;0.43;;;8.30;99.90;;;;;;5062880;28;20039;-88
2022/09/23 00:30:55;;;;;;;0.43;0.43;;;8.20;99.90;;;;;;5051017;28;20044;-91
2022/09/23 00:33:22;;;;;;;0.50;0.50;;;9.30;99.90;;;;;;5062887;28;20044;-90
2022/09/23 00:35:48;;;;;;;0.40;0.40;;;8.20;99.90;;;;;;5043917;28;20028;-90
2022/09/23 00:38:14;;;;;;;0.60;0.60;;;8.30;99.90;;;;;;5011998;28;20123;-89
2022/09/23 00:40:48;;;;;;;1.15;1.15;;;8.10;99.90;;;;;;5034393;28;20549;-91
2022/09/23 00:43:14;;;;;;;0.40;0.40;;;8.00;99.90;;;;;;5057164;28;20032;-88
2022/09/23 00:45:44;;;;;;;0.60;0.60;;;8.10;99.90;;;;;;5067774;28;20040;-89
2022/09/23 00:48:15;;;;;;;0.47;0.47;;;8.10;99.90;;;;;;5070829;28;20048;-89
2022/09/23 00:50:44;;;;;;;0.40;0.40;;;8.00;99.90;;;;;;5065726;28;20032;-88
2022/09/23 00:53:18;;;;;;;0.40;0.40;;;8.10;99.90;;;;;;5044668;28;20044;-92
2022/09/23 00:55:51;;;;;;;0.75;0.75;;;8.00;99.90;;;;;;5061888;28;20737;-89
2022/09/23 00:58:21;;;;;;;0.50;0.50;;;8.00;99.90;;;;;;5046201;28;20061;-89
2022/09/23 01:00:47;;;;;;;0.45;0.45;;;8.00;99.90;;;;;;5047966;28;20043;-90
2022/09/23 01:03:14;;;;;;;0.40;0.40;;;8.00;99.90;;;;;;5036446;28;20053;-89
2022/09/23 01:05:41;;;;;;;0.40;0.40;;;8.00;99.90;;;;;;5061146;28;20450;-87
2022/09/23 01:08:10;;;;;;;0.60;0.60;;;8.00;99.90;;;;;;5045265;28;20058;-89
2022/09/23 01:11:19;;;;;;;0.60;0.60;;;8.10;99.90;;;;;;5035092;28;20056;-91
2022/09/23 01:14:15;;;;;;;0.45;0.45;;;8.00;99.90;;;;;;5039322;28;20049;-90
2022/09/23 01:16:57;;;;;;;0.60;0.60;;;8.00;99.90;;;;;;5042463;28;20044;-89
2022/09/23 01:19:35;;;;;;;0.40;0.40;;;8.00;99.90;;;;;;5063250;28;20056;-92
2022/09/23 01:22:32;;;;;;;0.40;0.40;;;8.00;99.90;;;;;;5048139;28;20497;-91
2022/09/23 01:25:12;;;;;;;0.40;0.40;;;8.00;99.90;;;;;;5051830;28;20036;-89
2022/09/23 01:28:11;;;;;;;0.60;0.60;;;8.00;99.90;;;;;;5064051;28;20402;-90
2022/09/23 01:30:48;;;;;;;0.38;0.38;;;7.80;99.90;;;;;;5067551;28;20055;-87
2022/09/23 01:33:17;;;;;;;0.55;0.55;;;8.20;99.90;;;;;;5047231;28;20075;-90
2022/09/23 01:36:01;;;;;;;0.60;0.60;;;8.10;99.90;;;;;;5042976;28;20039;-90
2022/09/23 01:38:45;;;;;;;0.50;0.50;;;8.10;99.90;;;;;;5041634;28;20489;-89
2022/09/23 01:41:49;;;;;;;0.50;0.50;;;8.10;99.90;;;;;;5047842;28;20102;-89
2022/09/23 01:44:18;;;;;;;0.43;0.43;;;8.10;99.90;;;;;;5050699;28;20059;-89
2022/09/23 01:47:02;;;;;;;0.47;0.47;;;8.10;99.90;;;;;;5046018;28;20151;-86
2022/09/23 01:49:50;;;;;;;0.40;0.40;;;8.10;99.90;;;;;;5044459;28;20037;-89
2022/09/23 01:52:41;;;;;;;0.40;0.40;;;8.10;99.90;;;;;;5048611;28;20040;-87
2022/09/23 01:55:17;;;;;;;0.50;0.50;;;8.10;99.90;;;;;;5045736;28;20043;-90
2022/09/23 01:57:48;;;;;;;0.60;0.60;;;8.20;99.90;;;;;;5058457;28;20044;-91
2022/09/23 02:00:17;;;;;;;0.50;0.50;;;8.10;99.90;;;;;;5048570;28;20055;-85
2022/09/23 02:02:53;;;;;;;0.50;0.50;;;8.20;99.90;;;;;;5067733;28;20074;-90
2022/09/23 02:05:43;;;;;;;0.57;0.57;;;8.20;99.90;;;;;;5049811;28;20635;-87
2022/09/23 02:08:22;;;;;;;0.50;0.50;;;8.20;99.90;;;;;;5065233;28;20083;-88
2022/09/23 02:11:14;;;;;;;0.35;0.35;;;8.20;99.90;;;;;;5047590;28;20045;-90
2022/09/23 02:13:47;;;;;;;0.38;0.38;;;8.20;99.90;;;;;;5045635;28;21803;-87
2022/09/23 02:16:54;;;;;;;0.43;0.43;;;8.30;99.90;;;;;;5079819;28;20041;-89
2022/09/23 02:19:24;;;;;;;0.52;0.52;;;8.20;99.90;;;;;;5010978;28;20045;-87
2022/09/23 02:21:57;;;;;;;0.70;0.70;;;8.40;99.90;;;;;;5024264;28;20037;-87
2022/09/23 02:24:30;;;;;;;0.70;0.70;;;8.20;99.90;;;;;;5029865;28;20068;-85
2022/09/23 02:27:18;;;;;;;0.40;0.40;;;8.10;99.90;;;;;;5079823;28;20033;-86
2022/09/23 02:29:53;;;;;;;0.50;0.50;;;8.10;99.90;;;;;;5073844;28;20048;-88
2022/09/23 02:32:37;;;;;;;0.40;0.40;;;8.00;99.90;;;;;;5057535;28;20509;-89
2022/09/23 02:35:35;;;;;;;0.50;0.50;;;7.90;99.90;;;;;;5051600;28;20028;-89
2022/09/23 02:38:36;;;;;;;0.28;0.28;;;7.80;99.90;;;;;;5061637;28;20135;-88
2022/09/23 02:41:20;;;;;;;0.40;0.40;;;7.80;99.90;;;;;;5075930;28;20066;-88
2022/09/23 02:44:04;;;;;;;0.40;0.40;;;7.70;99.90;;;;;;5060510;28;20044;-86
2022/09/23 02:46:35;;;;;;;0.70;0.70;;;7.70;99.90;;;;;;5068072;28;20040;-89
2022/09/23 02:49:09;;;;;;;0.77;0.77;;;7.60;99.90;;;;;;5069911;28;20067;-84
2022/09/23 02:51:37;;;;;;;0.50;0.50;;;7.60;99.90;;;;;;5071952;28;20038;-88
2022/09/23 02:54:06;;;;;;;0.43;0.43;;;7.60;99.90;;;;;;5058699;28;20114;-86
2022/09/23 02:56:32;;;;;;;0.60;0.60;;;7.50;99.90;;;;;;5071704;28;20037;-88
2022/09/23 02:58:59;;;;;;;0.50;0.50;;;7.40;99.90;;;;;;5042594;28;20072;-87
2022/09/23 03:01:33;;;;;;;;;;;7.40;99.90;;;;;;5074180;28;20367;-86
2022/09/23 03:04:16;;;;;;;0.50;0.50;;;7.30;99.90;;;;;;5055442;28;19917;-88
2022/09/23 03:07:05;;;;;;;0.50;0.50;;;7.30;99.90;;;;;;5056797;28;20482;-88
2022/09/23 03:09:54;;;;;;;0.55;0.55;;;7.30;99.90;;;;;;5073437;28;20510;-90
2022/09/23 03:12:30;;;;;;;0.38;0.38;;;7.20;99.90;;;;;;5099341;28;20501;-90
2022/09/23 03:15:16;;;;;;;0.50;0.50;;;7.20;99.90;;;;;;5078039;28;20043;-86
2022/09/23 03:17:55;;;;;;;0.40;0.40;;;7.10;99.90;;;;;;5074529;28;20055;-90
2022/09/23 03:20:30;;;;;;;0.60;0.60;;;7.10;99.90;;;;;;5052450;28;21578;-89
2022/09/23 03:23:00;;;;;;;0.63;0.63;;;7.10;99.90;;;;;;5070745;28;20528;-88
2022/09/23 03:25:30;;;;;;;0.40;0.40;;;7.00;99.90;;;;;;5087949;28;20055;-90
2022/09/23 03:27:59;;;;;;;0.32;0.32;;;7.00;99.90;;;;;;5090551;28;20033;-90
2022/09/23 03:30:26;;;;;;;0.60;0.60;;;7.00;99.90;;;;;;5087945;28;20032;-90
2022/09/23 03:32:54;;;;;;;0.50;0.50;;;7.70;99.90;;;;;;5073585;28;20117;-89
2022/09/23 03:35:23;;;;;;;0.50;0.50;;;7.00;99.90;;;;;;5079280;28;20060;-90
2022/09/23 03:37:59;;;;;;;0.50;0.50;;;7.00;99.90;;;;;;5059448;28;20037;-87
2022/09/23 03:40:34;;;;;;;0.60;0.60;;;6.90;99.90;;;;;;5067494;28;20024;-89
2022/09/23 03:43:01;;;;;;;0.60;0.60;;;6.90;99.90;;;;;;5066141;28;20371;-88
2022/09/23 03:45:31;;;;;;;0.50;0.50;;;6.90;99.90;;;;;;5063556;28;20052;-91
2022/09/23 03:48:05;;;;;;;0.50;0.50;;;6.90;99.90;;;;;;5079838;28;20036;-89
2022/09/23 03:50:31;;;;;;;0.93;0.93;;;6.90;99.90;;;;;;5063986;28;20275;-90
2022/09/23 03:52:57;;;;;;;0.60;0.60;;;6.90;99.90;;;;;;5068638;28;21097;-90
2022/09/23 03:55:22;;;;;;;0.77;0.77;;;6.80;99.90;;;;;;5065965;28;20040;-91
2022/09/23 03:57:48;;;;;;;0.50;0.50;;;6.90;99.90;;;;;;5073428;28;20032;-86
2022/09/23 04:00:14;;;;;;;0.50;0.50;;;6.70;99.90;;;;;;5066451;28;20543;-89
2022/09/23 04:02:40;;;;;;;;;;;6.80;99.90;;;;;;5036750;28;20094;-88
2022/09/23 04:05:07;;;;;;;0.60;0.60;;;6.70;99.90;;;;;;5054147;28;19923;-93
2022/09/23 04:07:33;;;;;;;0.40;0.40;;;6.70;99.90;;;;;;5052806;28;20083;-89
2022/09/23 04:09:59;;;;;;;0.63;0.63;;;7.80;99.90;;;;;;5062570;28;20052;-88
2022/09/23 04:12:24;;;;;;;1.17;1.08;;;7.30;99.90;;;;;;5054666;28;20067;-87
2022/09/23 04:14:50;;;;;;;0.60;0.60;;;6.70;99.90;;;;;;5065158;28;20036;-90
2022/09/23 04:17:16;;;;;;;0.70;0.70;;;6.70;99.90;;;;;;5073116;28;20112;-89
2022/09/23 04:19:42;;;;;;;0.60;0.60;;;6.70;99.90;;;;;;5052521;28;20041;-90
2022/09/23 04:22:08;;;;;;;0.50;0.50;;;6.70;99.90;;;;;;5071357;28;20103;-90
2022/09/23 04:24:34;;;;;;;0.68;0.68;;;7.10;99.90;;;;;;5070251;28;20086;-92
2022/09/23 04:27:00;;;;;;;0.65;0.65;;;6.70;99.90;;;;;;5036362;28;20041;-90
2022/09/23 04:29:26;;;;;;;0.50;0.50;;;6.70;99.90;;;;;;5070709;28;20039;-89
2022/09/23 04:31:52;;;;;;;0.50;0.50;;;6.90;99.90;;;;;;5068287;28;20075;-90
2022/09/23 04:34:21;;;;;;;0.50;0.50;;;6.70;99.90;;;;;;5070392;28;20386;-90
2022/09/23 04:36:47;;;;;;;;;;;6.60;99.90;;;;;;5054325;28;20098;-88
2022/09/23 04:39:15;;;;;;;0.40;0.40;;;6.90;99.90;;;;;;5073400;28;19916;-86
2022/09/23 04:41:42;;;;;;;0.60;0.60;;;6.70;99.90;;;;;;5059818;28;20047;-87
2022/09/23 04:44:08;;;;;;;0.70;0.70;;;7.90;99.90;;;;;;5088057;28;20047;-85
2022/09/23 04:46:33;;;;;;;0.70;0.70;;;7.40;99.90;;;;;;5046682;28;20115;-82
2022/09/23 04:48:59;;;;;;;0.57;0.57;;;6.70;99.90;;;;;;5067200;28;20045;-84
2022/09/23 04:51:27;;;;;;;0.50;0.50;;;6.70;99.90;;;;;;5057344;28;20044;-88
2022/09/23 04:53:54;;;;;;;0.50;0.50;;;6.70;99.90;;;;;;5052675;28;20037;-87
2022/09/23 04:56:23;;;;;;;0.50;0.50;;;6.80;99.90;;;;;;5051683;28;20044;-87
2022/09/23 04:58:49;;;;;;;0.50;0.50;;;7.60;99.90;;;;;;5064280;28;20098;-87
2022/09/23 05:01:25;;;;;;;0.50;0.50;;;6.80;99.90;;;;;;5067090;28;20082;-89
2022/09/23 05:03:56;;;;;;;0.63;0.63;;;6.90;99.90;;;;;;5056277;28;20048;-87
2022/09/23 05:06:24;;;;;;;0.50;0.50;;;6.90;99.90;;;;;;5073985;28;20071;-88
2022/09/23 05:08:55;;;;;;;0.45;0.45;;;6.90;99.90;;;;;;5063471;28;20057;-88
2022/09/23 05:11:22;;;;;;;0.50;0.50;;;7.10;99.90;;;;;;5042863;28;20044;-88
2022/09/23 05:13:50;;;;;;;0.90;0.90;;;7.00;99.90;;;;;;5063933;28;20041;-85
2022/09/23 05:16:17;;;;;;;0.40;0.40;;;7.00;99.90;;;;;;5071131;28;20637;-87
2022/09/23 05:18:47;;;;;;;1.27;1.27;;;7.00;99.90;;;;;;5060966;28;20075;-88
2022/09/23 05:21:15;;;;;;;0.50;0.50;;;7.20;99.90;;;;;;5069883;28;20044;-91
2022/09/23 05:23:41;;;;;;;0.50;0.50;;;7.10;99.90;;;;;;5079974;28;20051;-88
2022/09/23 05:26:12;;;;;;;0.50;0.50;;;7.20;99.90;;;;;;5077853;28;20047;-87
2022/09/23 05:28:38;;;;;;;0.50;0.50;;;7.20;99.90;;;;;;5067428;28;20048;-88
2022/09/23 05:31:15;;;;;;;0.50;0.50;;;7.10;99.90;;;;;;5073210;28;20397;-90
2022/09/23 05:33:47;;;;;;;0.50;0.50;;;7.20;99.90;;;;;;5057722;28;20068;-87
2022/09/23 05:36:15;;;;;;;0.55;0.55;;;7.20;99.90;;;;;;5081421;28;20032;-89
2022/09/23 05:38:41;;;;;;;0.50;0.50;;;7.30;99.90;;;;;;5056167;28;20044;-86
2022/09/23 05:41:09;;;;;;;0.43;0.43;;;7.20;99.90;;;;;;5051717;28;20047;-91
2022/09/23 05:43:35;;;;;;;0.50;0.50;;;7.80;99.90;;;;;;5060668;28;20053;-89
2022/09/23 05:46:08;;;;;;;0.50;0.50;;;7.30;99.90;;;;;;5043196;28;20040;-89
2022/09/23 05:48:35;;;;;;;0.50;0.50;;;7.40;99.90;;;;;;5038569;28;20071;-90
2022/09/23 05:51:02;;;;;;;0.50;0.50;;;7.50;99.90;;;;;;5089913;28;20045;-89
2022/09/23 05:53:29;;;;;;;0.60;0.60;;;7.60;99.90;;;;;;5079183;28;20074;-89
2022/09/23 05:55:56;;;;;;;0.35;0.35;;;7.90;99.90;;;;;;5042512;28;20040;-89
2022/09/23 05:58:23;;;;;;;0.47;0.47;;;7.90;99.90;;;;;;5055166;28;20036;-87
2022/09/23 06:00:49;;;;;;;0.43;0.43;;;8.40;99.90;;;;;;5019750;28;20033;-90
2022/09/23 06:03:18;;;;;;;0.47;0.47;;;7.80;99.90;;;;;;5072593;28;20497;-89
2022/09/23 06:05:44;;;;;;;0.60;0.60;;;8.00;99.90;;;;;;5055539;28;20512;-89
2022/09/23 06:08:11;;;;;;;0.40;0.40;;;8.10;99.90;;;;;;5078879;28;20144;-91
2022/09/23 06:10:38;;;;;;;0.75;0.75;;;8.20;99.90;;;;;;5074303;28;20044;-89
2022/09/23 06:13:04;;;;;;;0.50;0.50;;;8.30;99.90;;;;;;5070243;28;20036;-89
2022/09/23 06:15:30;;;;;;;0.52;0.52;;;8.40;99.90;;;;;;5067824;28;20100;-89
2022/09/23 06:17:55;;;;;;;0.50;0.50;;;8.60;99.90;;;;;;5024297;28;20043;-88
2022/09/23 06:20:21;;;;;;;0.50;0.50;;;8.60;99.90;;;;;;5069563;28;20032;-90
2022/09/23 06:22:47;;;;;;;0.50;0.50;;;8.70;99.90;;;;;;5062104;28;20464;-90
2022/09/23 06:25:13;;;;;;;0.50;0.50;;;8.80;99.90;;;;;;5084398;28;20066;-90
2022/09/23 06:27:38;;;;;;;0.45;0.45;;;8.80;99.90;;;;;;5030435;28;20040;-91
2022/09/23 06:30:05;;;;;;;0.45;0.45;;;8.90;99.90;;;;;;5029888;28;20029;-85
2022/09/23 06:32:34;;;;;;;0.95;0.95;;;9.00;99.90;;;;;;5083963;28;20103;-87
2022/09/23 06:35:01;;;;;;;0.50;0.50;;;9.10;99.90;;;;;;5051652;28;20108;-87
2022/09/23 06:37:27;;;;;;;0.50;0.50;;;9.20;99.90;;;;;;5062672;28;20041;-89
2022/09/23 06:39:53;;;;;;;1.05;0.70;;;9.20;99.90;;;;;;5056321;28;20098;-89
2022/09/23 06:42:19;;;;;;;;;;;9.30;99.90;;;;;;5022767;28;20040;-88
2022/09/23 06:44:44;;;;;;;0.60;0.57;;;9.40;99.90;;;;;;5052502;28;19920;-88
2022/09/23 06:47:10;;;;;;;0.35;0.35;;;9.50;99.90;;;;;;5049688;28;20040;-87
2022/09/23 06:49:36;;;;;;;2.05;1.95;;;9.60;99.90;;;;;;5034561;28;20032;-88
2022/09/23 06:52:01;;;;;;;0.50;0.50;;;10.20;99.90;;;;;;5063254;28;20123;-86
2022/09/23 06:54:29;;;;;;;0.52;0.52;;;9.90;99.90;;;;;;5053060;28;20044;-88
2022/09/23 06:56:55;;;;;;;1.25;1.25;;;10.10;99.90;;;;;;5059495;28;20072;-88
2022/09/23 06:59:21;;;;;;;0.40;0.40;;;10.20;99.90;;;;;;5066893;28;20125;-88
2022/09/23 07:01:47;;;;;;;0.50;0.50;;;10.40;99.90;;;;;;5069720;28;20033;-88
2022/09/23 07:04:13;;;;;;;0.30;0.30;;;10.50;99.90;;;;;;5071642;28;20478;-87
2022/09/23 07:06:45;;;;;;;0.40;0.40;;;10.60;99.90;;;;;;5034747;28;20048;-87
2022/09/23 07:09:11;;;;;;;0.35;0.35;;;10.80;99.90;;;;;;5074261;28;20460;-85
2022/09/23 07:11:36;;;;;;;;;;;10.90;99.90;;;;;;5058054;28;20059;-87
2022/09/23 07:14:03;;;;;;;0.40;0.40;;;11.00;99.90;;;;;;5056546;28;20362;-87
2022/09/23 07:16:30;;;;;;;0.60;0.60;;;11.00;99.90;;;;;;5060635;28;20039;-87
2022/09/23 07:18:56;;;;;;;0.40;0.40;;;11.00;99.90;;;;;;5072253;28;20040;-88
2022/09/23 07:21:21;;;;;;;0.43;0.43;;;11.10;99.90;;;;;;5037889;28;20091;-87
2022/09/23 07:23:50;;;;;;;0.50;0.50;;;11.00;99.90;;;;;;5071877;28;20058;-86
2022/09/23 07:26:18;;;;;;;0.43;0.43;;;11.00;99.90;;;;;;5069652;28;20048;-86
2022/09/23 07:28:44;;;;;;;0.40;0.40;;;11.00;99.90;;;;;;5076580;28;20097;-85
2022/09/23 07:31:15;;;;;;;0.50;0.50;;;11.00;99.90;;;;;;5040146;28;20048;-84
2022/09/23 07:33:44;;;;;;;0.40;0.40;;;11.00;99.90;;;;;;5070251;28;20548;-86
2022/09/23 07:36:13;;;;;;;0.40;0.40;;;11.00;99.90;;;;;;5055139;28;20033;-88
2022/09/23 07:38:39;;;;;;;0.40;0.40;;;11.10;99.90;;;;;;5072003;28;20051;-86
2022/09/23 07:41:13;;;;;;;0.50;0.50;;;11.20;99.90;;;;;;5048225;28;20169;-87
2022/09/23 07:43:39;;;;;;;0.40;0.40;;;11.20;99.90;;;;;;5037573;28;20044;-87
2022/09/23 07:46:13;;;;;;;0.35;0.35;;;11.30;99.90;;;;;;5056828;28;20056;-87
2022/09/23 07:48:39;;;;;;;0.45;0.45;;;11.40;99.90;;;;;;5042558;28;20044;-86
2022/09/23 07:51:28;;;;;;;0.57;0.57;;;11.50;99.90;;;;;;5078041;28;20049;-86
2022/09/23 07:53:54;;;;;;;0.32;0.32;;;11.60;99.90;;;;;;5064243;28;20501;-85
2022/09/23 07:56:23;;;;;;;0.90;0.85;;;11.80;99.90;;;;;;5060299;28;20043;-87
2022/09/23 07:58:58;;;;;;;0.50;0.50;;;11.90;99.90;;;;;;5052798;28;20061;-84
2022/09/23 08:01:28;;;;;;;0.40;0.40;;;12.00;99.90;;;;;;5068574;28;20086;-87
2022/09/23 08:03:55;;;;;;;0.55;0.55;;;12.10;99.90;;;;;;5071324;28;20493;-86
2022/09/23 08:06:22;;;;;;;0.55;0.55;;;12.20;99.90;;;;;;5088691;28;20043;-86
2022/09/23 08:08:48;;;;;;;0.98;0.98;;;12.20;99.90;;;;;;5058017;28;20424;-86
2022/09/23 08:11:14;;;;;;;;;;;12.30;99.90;;;;;;5067838;28;20045;-87
2022/09/23 08:13:40;;;;;;;0.25;0.25;;;12.40;99.90;;;;;;5049586;28;19927;-86
2022/09/23 08:16:06;;;;;;;0.50;0.50;;;12.30;99.90;;;;;;5046508;28;20040;-85
2022/09/23 08:18:32;;;;;;;1.00;0.63;;;12.40;99.90;;;;;;5074186;28;20501;-86
2022/09/23 08:20:58;;;;;;;0.73;0.73;;;12.40;99.90;;;;;;5017857;28;20032;-87
2022/09/23 08:23:24;;;;;;;0.68;0.68;;;12.50;99.90;;;;;;5069907;28;20045;-84
2022/09/23 08:25:58;;;;;;;1.40;1.30;;;12.50;99.90;;;;;;5055168;28;20048;-85
2022/09/23 08:28:26;;;;;;;0.40;0.40;;;12.60;99.90;;;;;;5048197;28;20473;-87
2022/09/23 08:30:52;;;;;;;0.50;0.50;;;12.70;99.90;;;;;;5059653;28;20047;-86
2022/09/23 08:33:18;;;;;;;1.25;1.15;;;12.80;99.90;;;;;;5061899;28;20057;-85
2022/09/23 08:35:44;;;;;;;0.60;0.55;;;12.90;99.90;;;;;;5050723;28;20029;-87
2022/09/23 08:38:09;;;;;;;0.45;0.45;;;13.10;99.90;;;;;;5055078;28;20044;-87
2022/09/23 08:40:39;;;;;;;0.40;0.40;;;13.30;99.90;;;;;;5060691;28;20041;-85
2022/09/23 08:43:27;;;;;;;0.30;0.30;;;13.40;99.90;;;;;;5065046;28;20388;-86
2022/09/23 08:45:56;;;;;;;0.30;0.30;;;13.60;99.90;;;;;;5063168;28;20105;-85
2022/09/23 08:48:30;;;;;;;1.42;1.40;;;13.80;99.90;;;;;;5059499;28;20045;-86
2022/09/23 08:51:06;;;;;;;0.30;0.30;;;14.00;99.90;;;;;;5050261;28;20040;-85
2022/09/23 08:53:34;;;;;;;0.73;0.73;;;14.20;99.90;;;;;;5054353;28;20064;-87
2022/09/23 08:56:10;;;;;;;0.45;0.45;;;14.40;99.90;;;;;;5055013;28;20490;-86
2022/09/23 08:58:42;;;;;;;0.50;0.50;;;14.60;99.90;;;;;;5071056;28;20048;-85
2022/09/23 09:01:36;;;;;;;0.50;0.50;;;14.60;99.90;;;;;;5064143;28;20600;-85
2022/09/23 09:04:08;;;;;;;0.30;0.30;;;14.60;99.90;;;;;;5066602;28;20077;-85
2022/09/23 09:06:49;;;;;;;1.00;1.00;;;14.80;99.90;;;;;;5065978;28;20054;-84
2022/09/23 09:09:32;;;;;;;0.30;0.30;;;14.80;99.90;;;;;;5074199;28;20052;-85
2022/09/23 09:12:24;;;;;;;0.35;0.32;;;14.90;99.90;;;;;;5054878;28;20051;-85
2022/09/23 09:14:56;;;;;;;0.47;0.47;;;15.00;99.90;;;;;;5073449;28;20438;-85
2022/09/23 09:17:32;;;;;;;0.82;0.40;;;15.00;99.90;;;;;;5080127;28;20036;-84
2022/09/23 09:20:17;;;;;;;0.30;0.30;;;15.10;99.90;;;;;;5070261;28;20403;-85
2022/09/23 09:22:59;;;;;;;0.22;0.22;;;15.10;99.90;;;;;;5077535;28;20044;-84
2022/09/23 09:25:44;;;;;;;0.52;0.52;;;15.10;99.90;;;;;;5041704;28;20036;-85
2022/09/23 09:28:35;;;;;;;0.43;0.43;;;15.10;99.90;;;;;;5059792;28;20170;-87
2022/09/23 09:31:10;;;;;;;0.20;0.20;;;15.20;99.90;;;;;;5063949;28;20088;-85
2022/09/23 09:33:44;;;;;;;0.30;0.30;;;15.30;99.90;;;;;;5063565;28;20072;-85
2022/09/23 09:36:13;;;;;;;0.40;0.40;;;15.40;99.90;;;;;;5051667;28;20110;-86
2022/09/23 09:38:39;;;;;;;0.50;0.50;;;15.40;99.90;;;;;;5071953;28;20550;-86
2022/09/23 09:41:12;;;;;;;0.20;0.20;;;15.40;99.90;;;;;;5070064;28;20132;-86
2022/09/23 09:43:40;;;;;;;0.40;0.40;;;15.50;99.90;;;;;;5086439;28;20094;-85
2022/09/23 09:46:32;;;;;;;0.20;0.20;;;15.60;99.90;;;;;;5054765;28;20055;-85
2022/09/23 09:49:04;;;;;;;0.63;0.50;;;15.60;99.90;;;;;;5056339;28;20502;-85
2022/09/23 09:51:31;;;;;;;1.13;0.90;;;15.70;99.90;;;;;;5070917;28;20044;-87
2022/09/23 09:54:22;;;;;;;0.35;0.35;;;15.70;99.90;;;;;;5064331;28;20513;-85
2022/09/23 09:56:50;;;;;;;0.30;0.30;;;15.70;99.90;;;;;;5047351;28;20120;-86
2022/09/23 09:59:23;;;;;;;0.55;0.55;;;15.80;99.90;;;;;;5046582;28;20083;-88
2022/09/23 10:01:49;;;;;;;0.30;0.30;;;15.90;99.90;;;;;;5050685;28;20044;-86
2022/09/23 10:04:27;;;;;;;0.30;0.30;;;15.90;99.90;;;;;;5058637;28;20393;-86
2022/09/23 10:07:27;;;;;;;0.40;0.40;;;16.00;99.90;;;;;;5051011;28;20044;-85
2022/09/23 10:09:53;;;;;;;0.30;0.30;;;16.00;99.90;;;;;;5052796;28;20137;-85
2022/09/23 10:12:20;;;;;;;;;;;16.00;99.90;;;;;;5026127;28;20040;-86
2022/09/23 10:14:50;;;;;;;0.80;0.73;;;16.00;99.90;;;;;;5072953;28;20285;-86
2022/09/23 10:17:26;;;;;;;0.40;0.40;;;16.00;99.90;;;;;;5048343;28;20032;-85
2022/09/23 10:20:04;;;;;;;0.50;0.50;;;16.00;99.90;;;;;;5048257;28;20135;-86
2022/09/23 10:22:39;;;;;;;0.43;0.43;;;16.00;99.90;;;;;;5074584;28;20504;-86
2022/09/23 10:25:18;;;;;;;0.43;0.43;;;16.00;99.90;;;;;;5063055;28;20110;-86
2022/09/23 10:27:44;;;;;;;2.28;0.68;;;16.00;99.90;;;;;;5050585;28;20085;-85
2022/09/23 10:30:20;;;;;;;1.52;1.00;;;16.00;99.90;;;;;;5034254;28;20053;-86
2022/09/23 10:32:47;;;;;;;0.30;0.30;;;16.10;99.90;;;;;;5067256;28;20095;-85
2022/09/23 10:35:15;;;;;;;0.38;0.38;;;16.10;99.90;;;;;;5059731;28;20493;-85
2022/09/23 10:37:56;;;;;;;0.20;0.20;;;16.10;99.90;;;;;;5069288;28;20041;-85
2022/09/23 10:49:26;;;;;;;0.98;0.98;;;16.40;99.90;;;;;;5057691;28;20125;-88
2022/09/23 10:52:01;;;;;;;0.32;0.32;;;16.50;99.90;;;;;;5057442;28;20040;-85
2022/09/23 10:54:53;;;;;;;0.28;0.28;;;16.50;99.90;;;;;;5072879;28;20051;-87
2022/09/23 10:57:44;;;;;;;0.57;0.57;;;16.60;99.90;;;;;;5056250;28;20044;-88
2022/09/23 11:00:31;;;;;;;0.32;0.32;;;16.80;99.90;;;;;;5055400;28;20363;-85
2022/09/23 11:03:19;;;;;;;0.20;0.20;;;16.90;99.90;;;;;;5036906;28;20098;-82
2022/09/23 11:06:05;;;;;;;0.30;0.30;;;16.90;99.90;;;;;;5044816;28;20044;-85
2022/09/23 11:08:54;;;;;;;1.55;0.77;;;16.90;99.90;;;;;;5069520;28;20056;-85
2022/09/23 11:11:26;;;;;;;0.57;0.45;;;16.90;99.90;;;;;;5073078;28;20259;-86
2022/09/23 11:14:37;;;;;;;0.20;0.20;;;16.90;99.90;;;;;;5044457;28;20389;-86
2022/09/23 11:17:19;;;;;;;0.57;0.57;;;17.00;99.90;;;;;;5071196;28;20048;-85
2022/09/23 11:19:59;;;;;;;0.75;0.50;;;17.00;99.90;;;;;;5063221;28;20052;-85
2022/09/23 11:22:53;;;;;;;0.60;0.35;;;17.10;99.90;;;;;;5073062;28;20126;-86
2022/09/23 11:25:36;;;;;;;0.50;0.50;;;17.10;99.90;;;;;;5087723;28;20048;-85
2022/09/23 11:28:29;;;;;;;0.85;0.60;;;17.10;99.90;;;;;;5054621;28;20390;-84
2022/09/23 11:31:21;;;;;;;0.35;0.35;;;17.00;99.90;;;;;;5061911;28;20572;-85
2022/09/23 11:33:51;;;;;;;0.30;0.30;;;16.90;99.90;;;;;;5048998;28;20036;-85
2022/09/23 11:36:48;;;;;;;0.45;0.45;;;16.90;99.90;;;;;;5069886;28;20029;-85
2022/09/23 11:39:29;;;;;;;0.68;0.68;;;16.90;99.90;;;;;;5071723;28;20390;-85
2022/09/23 11:41:58;;;;;;;0.32;0.32;;;16.90;99.90;;;;;;5056605;28;20044;-87
2022/09/23 11:44:36;;;;;;;0.30;0.30;;;17.00;99.90;;;;;;5057258;28;20367;-85
2022/09/23 11:47:10;;;;;;;0.13;0.13;;;17.00;99.90;;;;;;5054010;28;20048;-84
2022/09/23 11:50:08;;;;;;;0.25;0.25;;;17.00;99.90;;;;;;5071740;28;20422;-86
2022/09/23 11:52:45;;;;;;;0.20;0.20;;;17.00;99.90;;;;;;5071138;28;20033;-83
2022/09/23 11:55:23;;;;;;;0.30;0.30;;;17.00;99.90;;;;;;5058333;28;20106;-86
2022/09/23 11:57:53;;;;;;;0.50;0.50;;;17.00;99.90;;;;;;5066724;28;20105;-84
2022/09/23 12:00:41;;;;;;;0.15;0.15;;;17.00;99.90;;;;;;5070454;28;20486;-85
2022/09/23 12:03:40;;;;;;;0.20;0.20;;;17.00;99.90;;;;;;5058484;28;20442;-83
2022/09/23 12:06:12;;;;;;;0.43;0.43;;;17.00;99.90;;;;;;5083993;28;20093;-83
2022/09/23 12:08:38;;;;;;;0.38;0.38;;;17.00;99.90;;;;;;5089682;28;20112;-85
2022/09/23 12:11:07;;;;;;;0.55;0.55;;;17.10;99.90;;;;;;5056308;28;20466;-86
2022/09/23 12:14:14;;;;;;;0.45;0.45;;;17.00;99.90;;;;;;5071792;28;20044;-84
2022/09/23 12:17:13;;;;;;;0.20;0.20;;;16.90;99.90;;;;;;5017832;28;20033;-87
2022/09/23 12:20:17;;;;;;;0.52;0.50;;;16.90;99.90;;;;;;5056924;28;20091;-86
2022/09/23 12:23:07;;;;;;;0.30;0.30;;;16.90;99.90;;;;;;5060173;28;20056;-86
2022/09/23 12:26:01;;;;;;;0.20;0.20;;;17.00;99.90;;;;;;5061204;28;20044;-86
2022/09/23 12:28:35;;;;;;;0.40;0.40;;;17.00;99.90;;;;;;5068823;28;20052;-83
2022/09/23 12:31:09;;;;;;;0.73;0.50;;;17.00;99.90;;;;;;5070307;28;20052;-86
2022/09/23 12:33:35;;;;;;;0.82;0.82;;;17.10;99.90;;;;;;5070783;28;20053;-88
2022/09/23 12:36:11;;;;;;;0.85;0.85;;;17.10;99.90;;;;;;5058058;28;20069;-86
2022/09/23 12:38:50;;;;;;;0.70;0.70;;;17.10;99.90;;;;;;5036613;28;20048;-87
2022/09/23 12:41:37;;;;;;;0.50;0.50;;;17.10;99.90;;;;;;5069020;28;20044;-88
2022/09/23 12:44:12;;;;;;;;;;;17.10;99.90;;;;;;5071806;28;20154;-85
2022/09/23 12:46:45;;;;;;;0.85;0.85;;;17.10;99.90;;;;;;5073644;28;20011;-86
2022/09/23 12:49:27;;;;;;;0.80;0.80;;;17.20;99.90;;;;;;5060868;28;20777;-85
2022/09/23 12:52:23;;;;;;;0.40;0.40;;;17.20;99.90;;;;;;5055063;28;20406;-85
2022/09/23 12:54:50;;;;;;;0.50;0.50;;;17.20;99.90;;;;;;5070546;28;20397;-85
2022/09/23 12:57:34;;;;;;;0.93;0.93;;;17.30;99.90;;;;;;5062246;28;20043;-85
2022/09/23 13:00:10;;;;;;;0.50;0.50;;;17.30;99.90;;;;;;5069598;28;20097;-85
2022/09/23 13:02:42;;;;;;;0.35;0.35;;;17.30;99.90;;;;;;5059081;28;20509;-84
2022/09/23 13:08:18;;;;;;;0.50;0.50;;;17.30;99.90;;;;;;5054658;28;20057;-85
2022/09/23 13:10:51;;;;;;;0.40;0.40;;;17.30;99.90;;;;;;5055144;28;20052;-85
2022/09/23 13:13:34;;;;;;;0.22;0.22;;;17.30;99.90;;;;;;5051975;28;20044;-83
2022/09/23 13:16:22;;;;;;;0.60;0.60;;;17.30;99.90;;;;;;5046590;28;20075;-85
2022/09/23 13:19:04;;;;;;;0.40;0.40;;;17.20;99.90;;;;;;5061989;28;20040;-85
2022/09/23 13:21:42;;;;;;;0.30;0.30;;;17.10;99.90;;;;;;5050679;28;20071;-86
2022/09/23 13:24:23;;;;;;;0.30;0.30;;;17.00;99.90;;;;;;5076672;28;20040;-87
2022/09/23 13:26:52;;;;;;;0.38;0.38;;;16.30;99.90;;;;;;5052518;28;20032;-86
2022/09/23 13:29:45;;;;;;;0.20;0.20;;;17.00;99.90;;;;;;5074500;28;21008;-85
2022/09/23 13:32:16;;;;;;;0.30;0.30;;;16.90;99.90;;;;;;5070731;28;20060;-86
2022/09/23 13:34:46;;;;;;;0.45;0.43;;;16.90;99.90;;;;;;5052858;28;20047;-87
2022/09/23 13:37:40;;;;;;;0.47;0.47;;;16.90;99.90;;;;;;5063617;28;20044;-84
2022/09/23 13:40:15;;;;;;;2.70;0.40;;;16.80;99.90;;;;;;5068139;28;20074;-85
2022/09/23 13:42:43;;;;;;;0.30;0.30;;;16.80;99.90;;;;;;5041072;28;20084;-85